This is the latest recevied weather packets stored in our database for station/object DL4NBA-1. If no packets are shown the sender has not sent any weather packets the latest 10 day(s).
| Time | Temp. | Humidity | Pressure | Rain* | Wind** | Luminosity | Snow |
|---|---|---|---|---|---|---|---|
| 1777655467 | 26.67° C | - | - | 0 mm | 3.13 m/s, 135° | - | - |
| 1777654866 | 28.89° C | - | - | 0 mm | 1.79 m/s, 141° | - | - |
| 1777654567 | 27.22° C | - | - | 0 mm | 2.68 m/s, 141° | - | - |
| 1777654268 | 26.67° C | - | - | 0 mm | 4.02 m/s, 125° | - | - |
| 1777653969 | 26.67° C | - | - | 0 mm | 2.68 m/s, 104° | - | - |
| 1777653666 | 26.67° C | - | - | 0 mm | 3.13 m/s, 131° | - | - |
| 1777653367 | 27.22° C | - | - | 0 mm | 2.68 m/s, 148° | - | - |
| 1777653068 | 27.22° C | - | - | 0 mm | 2.24 m/s, 91° | - | - |
| 1777652769 | 26.67° C | - | - | 0 mm | 1.79 m/s, 131° | - | - |
| 1777652469 | 24.44° C | - | - | 0 mm | 3.58 m/s, 124° | - | - |
| 1777652168 | 23.89° C | - | - | 0 mm | 4.02 m/s, 101° | - | - |
| 1777651868 | 23.89° C | - | - | 0 mm | 4.02 m/s, 103° | - | - |
| 1777651569 | 23.89° C | - | - | 0 mm | 3.58 m/s, 129° | - | - |
| 1777651270 | 24.44° C | - | - | 0 mm | 3.13 m/s, 131° | - | - |
| 1777650971 | 25° C | - | - | 0 mm | 2.68 m/s, 100° | - | - |
| 1777650669 | 25° C | - | - | 0 mm | 3.13 m/s, 125° | - | - |
| 1777650370 | 24.44° C | - | - | 0 mm | 3.58 m/s, 132° | - | - |
| 1777650071 | 25° C | - | - | 0 mm | 4.02 m/s, 141° | - | - |
| 1777649772 | 25° C | - | - | 0 mm | 4.92 m/s, 132° | - | - |
| 1777649473 | 25° C | - | - | 0 mm | 2.24 m/s, 103° | - | - |
| 1777649170 | 25° C | - | - | 0 mm | 3.58 m/s, 96° | - | - |
| 1777648870 | 25° C | - | - | 0 mm | 3.58 m/s, 89° | - | - |
| 1777648272 | 25.56° C | - | - | 0 mm | 2.68 m/s, 104° | - | - |
| 1777647973 | 25° C | - | - | 0 mm | 4.47 m/s, 86° | - | - |
| 1777647671 | 24.44° C | - | - | 0 mm | 4.47 m/s, 82° | - | - |
* Rain latest hour (hover to see other rain measurements)
** Current wind speed in m/s (hover to see current wind gust speed)